createdAt,value
2022-11-22T00:00:21.075Z,84.83
2022-11-22T00:02:47.786Z,85.23
2022-11-22T00:05:14.869Z,85.66
2022-11-22T00:07:41.830Z,83.62
2022-11-22T00:10:11.212Z,82.62
2022-11-22T00:12:37.934Z,84.46
2022-11-22T00:15:07.649Z,85.65
2022-11-22T00:17:35.046Z,83.81
2022-11-22T00:20:01.761Z,84.39
2022-11-22T00:22:31.470Z,85.15
2022-11-22T00:24:58.634Z,86.42
2022-11-22T00:27:25.817Z,85.90
2022-11-22T00:29:52.707Z,84.84
2022-11-22T00:32:19.402Z,85.63
2022-11-22T00:34:45.966Z,83.19
2022-11-22T00:37:12.688Z,84.60
2022-11-22T00:39:39.412Z,85.77
2022-11-22T00:42:06.191Z,86.88
2022-11-22T00:44:32.847Z,85.71
2022-11-22T00:46:59.580Z,86.31
2022-11-22T00:49:26.451Z,86.21
2022-11-22T00:51:53.167Z,87.98
2022-11-22T00:54:19.893Z,88.00
2022-11-22T00:56:46.492Z,88.89
2022-11-22T00:59:13.391Z,88.05
2022-11-22T01:01:40.041Z,88.32
2022-11-22T01:04:10.655Z,89.37
2022-11-22T01:06:37.644Z,88.17
2022-11-22T01:09:04.737Z,88.66
2022-11-22T01:11:35.265Z,89.97
2022-11-22T01:14:02.122Z,90.03
2022-11-22T01:16:28.870Z,90.06
2022-11-22T01:18:55.543Z,90.62
2022-11-22T01:21:22.221Z,90.57
2022-11-22T01:23:48.803Z,90.55
2022-11-22T01:26:15.549Z,90.57
2022-11-22T01:28:42.141Z,90.97
2022-11-22T01:31:09.260Z,92.73
2022-11-22T01:33:36.318Z,91.89
2022-11-22T01:36:03.149Z,92.85
2022-11-22T01:38:29.816Z,91.79
2022-11-22T01:40:56.562Z,89.53
2022-11-22T01:43:26.032Z,89.84
2022-11-22T01:45:54.875Z,90.39
2022-11-22T01:48:42.570Z,91.39
2022-11-22T01:51:29.768Z,94.09
2022-11-22T01:54:00.177Z,94.89
2022-11-22T01:56:29.431Z,95.74
2022-11-22T01:59:05.034Z,94.86
2022-11-22T02:01:32.879Z,93.41
2022-11-22T02:04:02.547Z,94.49
2022-11-22T02:06:47.359Z,95.91
2022-11-22T02:09:14.584Z,95.21
2022-11-22T02:11:50.116Z,95.97
2022-11-22T02:14:20.234Z,95.25
2022-11-22T02:16:48.253Z,96.76
2022-11-22T02:19:21.879Z,96.78
2022-11-22T02:21:54.729Z,95.56
2022-11-22T02:24:31.404Z,93.50
2022-11-22T02:26:58.495Z,94.53
2022-11-22T02:29:25.472Z,95.09
2022-11-22T02:31:52.075Z,96.47
2022-11-22T02:34:19.474Z,96.70
2022-11-22T02:36:50.503Z,97.55
2022-11-22T02:39:20.201Z,96.61
2022-11-22T02:41:47.940Z,96.11
2022-11-22T02:44:15.514Z,95.83
2022-11-22T02:47:08.372Z,96.51
2022-11-22T02:49:35.045Z,95.58
2022-11-22T02:52:01.626Z,94.99
2022-11-22T02:54:28.333Z,97.70
2022-11-22T02:56:55.307Z,98.35
2022-11-22T02:59:22.156Z,99.23
2022-11-22T03:01:48.919Z,98.06
2022-11-22T03:04:24.818Z,97.31
2022-11-22T03:06:56.484Z,97.64
2022-11-22T03:09:24.729Z,97.31
2022-11-22T03:11:51.716Z,97.22
2022-11-22T03:14:18.451Z,96.72
2022-11-22T03:16:46.983Z,95.30
2022-11-22T03:19:14.198Z,96.20
2022-11-22T03:21:42.051Z,96.92
2022-11-22T03:24:09.603Z,96.49
2022-11-22T03:26:36.734Z,96.00
2022-11-22T03:29:04.213Z,95.29
2022-11-22T03:31:30.802Z,94.61
2022-11-22T03:33:57.766Z,95.17
2022-11-22T03:36:24.501Z,97.18
2022-11-22T03:38:51.162Z,95.90
2022-11-22T03:41:17.788Z,95.05
2022-11-22T03:43:44.523Z,96.89
2022-11-22T03:46:19.478Z,95.30
2022-11-22T03:48:46.629Z,94.83
2022-11-22T03:51:13.492Z,94.44
2022-11-22T03:53:40.346Z,94.31
2022-11-22T03:56:07.022Z,96.29
2022-11-22T03:58:34.105Z,94.74
2022-11-22T04:01:01.081Z,95.02
2022-11-22T04:03:28.448Z,95.02
2022-11-22T04:05:55.104Z,94.78
2022-11-22T04:08:21.755Z,94.89
2022-11-22T04:10:49.605Z,94.30
2022-11-22T04:13:16.369Z,94.96
2022-11-22T04:15:43.049Z,96.11
2022-11-22T04:18:13.986Z,96.68
2022-11-22T04:20:59.728Z,94.45
2022-11-22T04:23:32.285Z,96.20
2022-11-22T04:26:00.780Z,94.86
2022-11-22T04:28:53.663Z,94.03
2022-11-22T04:31:32.838Z,94.16
2022-11-22T04:33:59.416Z,93.90
2022-11-22T04:36:26.168Z,94.64
2022-11-22T04:38:52.747Z,95.09
2022-11-22T04:41:19.354Z,93.83
2022-11-22T04:44:04.711Z,92.88
2022-11-22T04:46:31.782Z,93.41
2022-11-22T04:48:58.415Z,93.50
2022-11-22T04:51:43.680Z,93.31
2022-11-22T04:54:10.308Z,93.22
2022-11-22T04:56:36.925Z,94.30
2022-11-22T04:59:03.613Z,94.39
2022-11-22T05:01:30.355Z,93.11
2022-11-22T05:03:56.972Z,92.18
2022-11-22T05:06:23.623Z,91.66
2022-11-22T05:08:50.300Z,91.11
2022-11-22T05:11:16.968Z,90.64
2022-11-22T05:13:44.046Z,90.39
2022-11-22T05:16:13.361Z,89.95
2022-11-22T05:18:40.841Z,89.90
2022-11-22T05:21:09.944Z,90.04
2022-11-22T05:23:55.309Z,90.18
2022-11-22T05:26:23.145Z,89.71
2022-11-22T05:28:50.348Z,88.58
2022-11-22T05:31:23.026Z,88.04
2022-11-22T05:33:52.100Z,87.63
2022-11-22T05:36:19.323Z,87.41
2022-11-22T05:38:46.241Z,87.99
2022-11-22T05:41:14.838Z,88.35
2022-11-22T05:43:41.604Z,88.70
2022-11-22T05:46:13.028Z,88.15
2022-11-22T05:48:41.940Z,87.84
2022-11-22T05:51:16.279Z,87.31
2022-11-22T05:53:44.163Z,86.88
2022-11-22T05:56:13.775Z,87.48
2022-11-22T05:58:41.607Z,86.74
2022-11-22T06:01:15.843Z,87.21
2022-11-22T06:03:42.790Z,86.90
2022-11-22T06:06:10.530Z,86.54
2022-11-22T06:08:45.200Z,86.50
2022-11-22T06:11:21.349Z,86.26
2022-11-22T06:13:50.438Z,85.79
2022-11-22T06:16:17.192Z,85.71
2022-11-22T06:18:44.511Z,86.17
2022-11-22T06:21:16.610Z,86.58
2022-11-22T06:23:43.860Z,85.20
2022-11-22T06:26:13.522Z,86.47
2022-11-22T06:28:40.818Z,86.49
2022-11-22T06:31:14.053Z,85.58
2022-11-22T06:33:42.007Z,84.92
2022-11-22T06:36:13.842Z,84.09
2022-11-22T06:38:41.912Z,84.24
2022-11-22T06:41:14.821Z,83.64
2022-11-22T06:43:48.230Z,83.53
2022-11-22T06:46:20.127Z,83.74
2022-11-22T06:48:47.694Z,83.86
2022-11-22T06:51:19.978Z,83.39
2022-11-22T06:53:49.070Z,83.32
2022-11-22T06:56:21.259Z,83.36
2022-11-22T06:58:49.615Z,84.07
2022-11-22T07:01:24.993Z,83.69
2022-11-22T07:03:56.010Z,83.80
2022-11-22T07:06:22.715Z,84.35
2022-11-22T07:08:49.430Z,84.76
2022-11-22T07:11:25.085Z,83.20
2022-11-22T07:13:52.580Z,83.93
2022-11-22T07:16:21.327Z,82.62
2022-11-22T07:18:49.302Z,82.35
2022-11-22T07:21:21.369Z,81.37
2022-11-22T07:23:50.010Z,81.79
2022-11-22T07:26:18.308Z,82.35
2022-11-22T07:28:45.920Z,81.21
2022-11-22T07:31:14.009Z,81.54
2022-11-22T07:33:41.842Z,80.24
2022-11-22T07:36:13.825Z,80.75
2022-11-22T07:38:40.516Z,80.84
2022-11-22T07:41:08.262Z,79.37
2022-11-22T07:43:35.253Z,79.40
2022-11-22T07:46:08.073Z,79.03
2022-11-22T07:48:34.927Z,79.09
2022-11-22T07:51:06.798Z,79.39
2022-11-22T07:53:34.616Z,79.45
2022-11-22T07:56:05.164Z,80.10
2022-11-22T07:58:33.066Z,80.21
2022-11-22T08:01:12.186Z,80.41
2022-11-22T08:03:39.533Z,79.75
2022-11-22T08:06:08.179Z,79.53
2022-11-22T08:08:35.663Z,79.64
2022-11-22T08:11:03.191Z,80.93
2022-11-22T08:13:30.538Z,80.24
2022-11-22T08:16:05.063Z,79.51
2022-11-22T08:18:32.464Z,80.30
2022-11-22T08:21:18.636Z,79.76
2022-11-22T08:23:46.287Z,79.62
2022-11-22T08:26:15.512Z,79.92
2022-11-22T08:28:43.084Z,80.95
2022-11-22T08:31:15.652Z,80.77
2022-11-22T08:33:42.325Z,79.08
2022-11-22T08:36:09.048Z,79.50
2022-11-22T08:38:36.072Z,78.63
2022-11-22T08:41:04.082Z,77.30
2022-11-22T08:43:31.482Z,76.89
2022-11-22T08:45:59.399Z,77.38
2022-11-22T08:48:26.640Z,77.24
2022-11-22T08:50:55.373Z,76.65
2022-11-22T08:53:23.462Z,76.75
2022-11-22T08:55:50.315Z,77.72
2022-11-22T08:58:17.391Z,78.03
2022-11-22T09:00:44.434Z,76.54
2022-11-22T09:03:11.248Z,76.78
2022-11-22T09:08:24.444Z,76.48
2022-11-22T09:10:51.177Z,76.21
2022-11-22T09:13:17.825Z,77.05
2022-11-22T09:15:44.645Z,75.95
2022-11-22T09:18:11.324Z,74.82
2022-11-22T09:20:38.101Z,74.94
2022-11-22T09:23:04.789Z,76.71
2022-11-22T09:25:31.434Z,75.02
2022-11-22T09:28:02.962Z,75.16
2022-11-22T09:30:30.731Z,76.63
2022-11-22T09:32:57.412Z,75.17
2022-11-22T09:35:24.094Z,76.54
2022-11-22T09:37:50.815Z,76.42
2022-11-22T09:40:17.517Z,77.12
2022-11-22T09:43:21.597Z,77.76
2022-11-22T09:46:22.320Z,75.59
2022-11-22T09:49:11.798Z,75.63
2022-11-22T09:51:52.057Z,75.54
2022-11-22T09:54:24.572Z,75.16
2022-11-22T09:56:54.444Z,73.39
2022-11-22T09:59:30.502Z,75.21
2022-11-22T10:02:43.594Z,73.78
2022-11-22T10:05:25.957Z,74.12
2022-11-22T10:08:01.588Z,72.90
2022-11-22T10:10:38.667Z,73.66
2022-11-22T10:13:15.310Z,73.64
2022-11-22T10:16:11.583Z,72.07
2022-11-22T10:18:50.411Z,72.68
2022-11-22T10:21:19.649Z,71.95
2022-11-22T10:23:47.492Z,71.52
2022-11-22T10:26:29.363Z,70.84
2022-11-22T10:28:58.847Z,70.61
2022-11-22T10:32:03.721Z,71.07
2022-11-22T10:34:53.427Z,71.75
2022-11-22T10:37:37.656Z,71.19
2022-11-22T10:40:13.410Z,70.90
2022-11-22T10:42:49.795Z,70.76
2022-11-22T10:45:29.679Z,69.57
2022-11-22T10:48:35.682Z,69.73
2022-11-22T10:51:45.082Z,70.85
2022-11-22T10:54:23.446Z,69.05
2022-11-22T10:57:00.783Z,70.28
2022-11-22T10:59:46.027Z,69.28
2022-11-22T11:02:29.879Z,69.42
2022-11-22T11:04:59.221Z,69.99
2022-11-22T11:07:26.663Z,70.45
2022-11-22T11:10:11.169Z,71.26
2022-11-22T11:12:52.700Z,70.76
2022-11-22T11:15:27.429Z,71.20
2022-11-22T11:18:01.045Z,71.24
2022-11-22T11:20:34.940Z,70.83
2022-11-22T11:23:17.058Z,69.42
2022-11-22T11:25:45.974Z,69.30
2022-11-22T11:28:21.064Z,70.25
2022-11-22T11:31:07.833Z,69.46
2022-11-22T11:33:38.221Z,70.89
2022-11-22T11:36:16.849Z,70.33
2022-11-22T11:38:43.370Z,70.76
2022-11-22T11:41:25.445Z,69.70
2022-11-22T11:43:54.647Z,69.08
2022-11-22T11:46:24.319Z,69.76
2022-11-22T11:48:53.418Z,67.70
2022-11-22T11:51:31.261Z,68.70
2022-11-22T11:54:10.537Z,68.81
2022-11-22T11:56:50.525Z,67.07
2022-11-22T11:59:30.866Z,65.97
2022-11-22T12:02:04.727Z,66.78
2022-11-22T12:04:35.956Z,66.24
2022-11-22T12:07:18.737Z,64.59
2022-11-22T12:09:48.562Z,64.94
2022-11-22T12:12:31.465Z,64.72
2022-11-22T12:15:12.113Z,65.20
2022-11-22T12:17:49.665Z,63.77
2022-11-22T12:20:22.057Z,64.24
2022-11-22T12:23:16.617Z,62.80
2022-11-22T12:25:44.560Z,63.04
2022-11-22T12:28:20.215Z,63.18
2022-11-22T12:30:56.738Z,63.22
2022-11-22T12:34:02.348Z,62.77
2022-11-22T12:36:41.699Z,63.11
2022-11-22T12:39:15.066Z,63.49
2022-11-22T12:41:43.748Z,63.43
2022-11-22T12:44:15.957Z,62.92
2022-11-22T12:46:50.789Z,63.06
2022-11-22T12:49:32.453Z,62.74
2022-11-22T12:52:23.775Z,62.75
2022-11-22T12:55:11.861Z,62.45
2022-11-22T12:57:52.757Z,64.01
2022-11-22T13:00:22.537Z,62.66
2022-11-22T13:03:04.519Z,62.48
2022-11-22T13:05:56.024Z,63.52
2022-11-22T13:08:40.562Z,64.17
2022-11-22T13:11:39.719Z,62.25
2022-11-22T13:14:29.221Z,63.31
2022-11-22T13:16:57.064Z,62.21
2022-11-22T13:19:27.009Z,63.88
2022-11-22T13:22:15.272Z,63.67
2022-11-22T13:25:26.445Z,62.95
2022-11-22T13:27:58.795Z,63.92
2022-11-22T13:30:27.659Z,64.14
2022-11-22T13:32:57.004Z,64.42
2022-11-22T13:35:35.593Z,64.64
2022-11-22T13:38:06.065Z,64.73
2022-11-22T13:41:19.126Z,65.31
2022-11-22T13:43:57.630Z,65.99
2022-11-22T13:46:49.273Z,66.18
2022-11-22T13:49:38.948Z,67.01
2022-11-22T13:52:12.723Z,66.17
2022-11-22T13:54:46.767Z,66.55
2022-11-22T13:57:29.592Z,66.71
2022-11-22T14:00:11.581Z,65.32
2022-11-22T14:02:55.177Z,65.95
2022-11-22T14:05:26.619Z,66.51
2022-11-22T14:07:58.557Z,66.56
2022-11-22T14:10:36.447Z,66.98
2022-11-22T14:13:08.815Z,67.36
2022-11-22T14:15:47.569Z,68.17
2022-11-22T14:18:42.105Z,67.70
2022-11-22T14:21:30.486Z,67.52
2022-11-22T14:24:05.270Z,67.71
2022-11-22T14:26:58.318Z,67.78
2022-11-22T14:29:43.671Z,68.28
2022-11-22T14:32:20.680Z,68.10
2022-11-22T14:35:05.662Z,68.04
2022-11-22T14:37:32.437Z,69.27
2022-11-22T14:40:14.151Z,69.51
2022-11-22T14:42:47.047Z,69.60
2022-11-22T14:45:23.143Z,69.07
2022-11-22T14:47:53.276Z,69.13
2022-11-22T14:50:25.730Z,69.61
2022-11-22T14:52:55.502Z,70.44
2022-11-22T14:55:27.495Z,70.43
2022-11-22T14:58:12.403Z,70.70
2022-11-22T15:00:55.267Z,71.36
2022-11-22T15:03:52.143Z,71.24
2022-11-22T15:09:20.354Z,71.49
2022-11-22T15:10:25.445Z,71.73
2022-11-22T15:12:58.152Z,73.01
2022-11-22T15:59:46.780Z,79.67
2022-11-22T16:02:18.237Z,79.84
2022-11-22T16:06:05.814Z,80.18
2022-11-22T16:07:54.917Z,81.10
2022-11-22T16:10:33.060Z,81.62
2022-11-22T16:13:11.163Z,83.30
2022-11-22T16:15:37.965Z,83.32
2022-11-22T16:18:14.938Z,83.73
2022-11-22T16:20:42.925Z,84.54
2022-11-22T16:23:09.466Z,84.78
2022-11-22T16:25:38.917Z,85.10
2022-11-22T16:28:27.461Z,86.35
2022-11-22T16:30:56.360Z,84.76
2022-11-22T16:33:23.816Z,86.17
2022-11-22T16:35:59.421Z,86.38
2022-11-22T16:38:27.266Z,87.09
2022-11-22T16:40:56.941Z,87.35
2022-11-22T16:43:26.053Z,89.05
2022-11-22T16:45:52.710Z,88.81
2022-11-22T16:48:37.903Z,86.41
2022-11-22T16:51:13.369Z,87.25
2022-11-22T16:53:46.094Z,86.60
2022-11-22T16:56:19.453Z,88.38
2022-11-22T16:58:48.120Z,88.47
2022-11-22T17:01:17.212Z,89.86
2022-11-22T17:03:46.284Z,90.55
2022-11-22T17:06:22.244Z,90.62
2022-11-22T17:08:50.789Z,91.46
2022-11-22T17:11:20.154Z,92.13
2022-11-22T17:13:47.971Z,92.90
2022-11-22T17:16:17.749Z,93.74
2022-11-22T17:18:46.128Z,92.66
2022-11-22T17:21:26.465Z,93.23
2022-11-22T17:23:56.744Z,93.65
2022-11-22T17:26:24.021Z,93.57
2022-11-22T17:28:50.729Z,94.49
2022-11-22T17:31:19.696Z,95.07
2022-11-22T17:33:53.385Z,95.33
2022-11-22T17:36:26.643Z,96.69
2022-11-22T17:38:53.326Z,95.87
2022-11-22T17:41:20.039Z,96.51
2022-11-22T17:43:46.838Z,96.67
2022-11-22T17:46:13.774Z,96.68
2022-11-22T17:48:40.529Z,95.87
2022-11-22T17:51:11.815Z,95.88
2022-11-22T17:53:39.145Z,95.66
2022-11-22T17:56:10.893Z,95.60
2022-11-22T17:58:39.217Z,95.77
2022-11-22T18:01:08.024Z,95.00
2022-11-22T18:03:34.812Z,95.50
2022-11-22T18:06:02.107Z,95.95
2022-11-22T18:08:29.303Z,96.22
2022-11-22T18:10:57.203Z,96.02
2022-11-22T18:13:23.847Z,96.28
2022-11-22T18:15:51.868Z,95.92
2022-11-22T18:18:48.630Z,95.60
2022-11-22T18:21:11.448Z,95.92
2022-11-22T18:23:40.873Z,96.96
2022-11-22T18:26:41.834Z,97.13
2022-11-22T18:29:35.145Z,96.44
2022-11-22T18:31:52.194Z,96.64
2022-11-22T18:34:19.755Z,96.51
2022-11-22T18:37:03.806Z,96.84
2022-11-22T18:39:34.103Z,96.33
2022-11-22T18:42:01.508Z,96.11
2022-11-22T18:44:28.249Z,95.59
2022-11-22T18:46:55.221Z,95.56
2022-11-22T18:49:21.908Z,95.60
2022-11-22T18:51:48.651Z,95.22
2022-11-22T18:54:15.963Z,94.92
2022-11-22T18:56:42.699Z,94.96
2022-11-22T18:59:12.703Z,95.10
2022-11-22T19:01:40.826Z,95.14
2022-11-22T19:04:07.974Z,94.68
2022-11-22T19:06:34.754Z,95.30
2022-11-22T19:09:02.353Z,95.53
2022-11-22T19:11:30.911Z,94.71
2022-11-22T19:13:57.755Z,93.48
2022-11-22T19:16:25.765Z,93.49
2022-11-22T19:18:52.637Z,93.75
2022-11-22T19:21:22.037Z,92.92
2022-11-22T19:23:52.753Z,93.57
2022-11-22T19:26:22.385Z,93.79
2022-11-22T19:28:53.416Z,93.55
2022-11-22T19:31:21.956Z,93.48
2022-11-22T19:33:49.418Z,93.41
2022-11-22T19:36:18.331Z,93.37
2022-11-22T19:38:45.563Z,93.39
2022-11-22T19:41:23.764Z,93.88
2022-11-22T19:43:51.423Z,93.93
2022-11-22T19:46:20.004Z,92.87
2022-11-22T19:48:51.731Z,92.62
2022-11-22T19:51:18.920Z,93.25
2022-11-22T19:53:45.621Z,93.63
2022-11-22T19:56:18.455Z,93.78
2022-11-22T19:58:50.933Z,93.97
2022-11-22T20:01:18.283Z,93.76
2022-11-22T20:03:45.873Z,94.95
2022-11-22T20:06:14.228Z,94.89
2022-11-22T20:08:41.287Z,91.99
2022-11-22T20:11:10.296Z,90.37
2022-11-22T20:13:39.615Z,90.40
2022-11-22T20:16:11.908Z,92.30
2022-11-22T20:18:38.575Z,92.78
2022-11-22T20:21:06.951Z,94.22
2022-11-22T20:23:33.769Z,94.40
2022-11-22T20:26:04.993Z,95.91
2022-11-22T20:28:31.796Z,95.86
2022-11-22T20:31:13.542Z,95.97
2022-11-22T20:33:42.711Z,95.99
2022-11-22T20:36:14.531Z,96.06
2022-11-22T20:38:42.932Z,95.36
2022-11-22T20:41:11.672Z,95.03
2022-11-22T20:43:38.329Z,94.86
2022-11-22T20:46:13.633Z,94.13
2022-11-22T20:48:42.096Z,94.34
2022-11-22T20:51:12.014Z,94.33
2022-11-22T20:53:38.814Z,94.51
2022-11-22T20:56:05.829Z,94.49
2022-11-22T20:58:33.234Z,94.84
2022-11-22T21:01:05.503Z,94.90
2022-11-22T21:03:33.599Z,95.33
2022-11-22T21:06:01.726Z,95.46
2022-11-22T21:08:28.748Z,96.54
2022-11-22T21:11:11.650Z,96.28
2022-11-22T21:13:39.233Z,95.64
2022-11-22T21:16:22.158Z,96.00
2022-11-22T21:18:54.817Z,95.49
2022-11-22T21:21:23.263Z,95.00
2022-11-22T21:23:55.496Z,94.65
2022-11-22T21:26:23.475Z,92.47
2022-11-22T21:28:50.436Z,93.85
2022-11-22T21:31:17.464Z,93.07
2022-11-22T21:33:45.514Z,90.63
2022-11-22T21:36:12.352Z,88.58
2022-11-22T21:38:39.046Z,89.27
2022-11-22T21:41:37.688Z,89.21
2022-11-22T21:43:56.323Z,90.07
2022-11-22T21:46:23.432Z,90.76
2022-11-22T21:48:50.428Z,90.15
2022-11-22T21:51:17.349Z,90.56
2022-11-22T21:53:44.011Z,89.52
2022-11-22T21:56:10.641Z,89.12
2022-11-22T21:58:37.448Z,89.98
2022-11-22T22:01:09.535Z,89.83
2022-11-22T22:03:40.253Z,89.25
2022-11-22T22:06:07.175Z,87.67
2022-11-22T22:08:34.033Z,88.83
2022-11-22T22:11:04.974Z,88.22
2022-11-22T22:13:32.268Z,88.58
2022-11-22T22:16:01.198Z,88.58
2022-11-22T22:18:32.210Z,88.24
2022-11-22T22:21:07.213Z,87.33
2022-11-22T22:23:35.384Z,88.03
2022-11-22T22:26:06.706Z,87.12
2022-11-22T22:28:35.559Z,88.49
2022-11-22T22:31:23.361Z,88.22
2022-11-22T22:33:54.686Z,87.21
2022-11-22T22:36:22.267Z,87.90
2022-11-22T22:38:49.172Z,87.25
2022-11-22T22:41:16.830Z,88.94
2022-11-22T22:43:46.212Z,88.95
2022-11-22T22:46:15.500Z,88.93
2022-11-22T22:48:43.215Z,90.41
2022-11-22T22:51:21.440Z,89.56
2022-11-22T22:53:48.725Z,88.75
2022-11-22T22:56:17.048Z,87.88
2022-11-22T22:58:44.417Z,89.21
2022-11-22T23:01:19.719Z,89.05
2022-11-22T23:03:50.472Z,90.50
2022-11-22T23:06:17.866Z,91.25
2022-11-22T23:08:46.837Z,91.60
2022-11-22T23:11:14.254Z,89.60
2022-11-22T23:13:42.384Z,88.66
2022-11-22T23:16:11.474Z,89.56
2022-11-22T23:18:43.951Z,89.95
2022-11-22T23:21:13.541Z,91.43
2022-11-22T23:23:40.671Z,91.69
2022-11-22T23:26:10.591Z,89.42
2022-11-22T23:28:38.054Z,87.62
2022-11-22T23:31:09.623Z,88.83
2022-11-22T23:33:36.349Z,88.49
2022-11-22T23:36:08.674Z,88.11
2022-11-22T23:38:36.211Z,89.33
2022-11-22T23:41:03.604Z,89.03
2022-11-22T23:43:31.084Z,87.05
2022-11-22T23:46:01.247Z,86.59
2022-11-22T23:48:28.261Z,86.06
2022-11-22T23:50:54.940Z,87.11
2022-11-22T23:53:21.711Z,86.41
2022-11-22T23:55:48.340Z,86.24
2022-11-22T23:58:14.985Z,86.72
